createdAt,value
2022-10-07T00:03:41.943Z,44.49
2022-10-07T00:08:46.989Z,44.74
2022-10-07T00:13:53.125Z,44.30
2022-10-07T00:18:57.982Z,44.73
2022-10-07T00:24:00.620Z,44.69
2022-10-07T00:29:03.929Z,44.73
2022-10-07T00:34:06.266Z,44.59
2022-10-07T00:39:11.966Z,44.86
2022-10-07T00:44:32.399Z,45.12
2022-10-07T00:49:44.845Z,45.13
2022-10-07T00:54:51.595Z,45.06
2022-10-07T00:59:55.955Z,44.53
2022-10-07T01:05:01.970Z,44.56
2022-10-07T01:10:05.725Z,44.78
2022-10-07T01:15:19.686Z,44.73
2022-10-07T01:20:53.631Z,44.85
2022-10-07T01:26:23.579Z,44.62
2022-10-07T01:31:33.599Z,44.73
2022-10-07T01:36:37.934Z,45.03
2022-10-07T01:41:41.826Z,45.11
2022-10-07T01:46:44.421Z,45.49
2022-10-07T01:51:52.411Z,45.65
2022-10-07T01:57:15.129Z,45.29
2022-10-07T02:02:52.255Z,45.10
2022-10-07T02:08:15.408Z,45.05
2022-10-07T02:13:33.999Z,45.08
2022-10-07T02:18:38.406Z,45.12
2022-10-07T02:23:44.499Z,45.13
2022-10-07T02:28:51.620Z,45.09
2022-10-07T02:33:57.546Z,45.85
2022-10-07T02:39:01.783Z,45.60
2022-10-07T02:44:15.103Z,45.78
2022-10-07T02:49:21.293Z,45.69
2022-10-07T02:54:29.614Z,45.96
2022-10-07T02:59:34.070Z,46.18
2022-10-07T03:04:36.300Z,46.23
2022-10-07T03:09:38.803Z,46.25
2022-10-07T03:14:41.411Z,46.64
2022-10-07T03:19:43.894Z,46.69
2022-10-07T03:24:46.068Z,46.66
2022-10-07T03:29:49.407Z,46.54
2022-10-07T03:34:53.172Z,46.63
2022-10-07T03:39:55.420Z,46.64
2022-10-07T03:44:57.824Z,46.80
2022-10-07T03:50:00.026Z,47.11
2022-10-07T03:55:02.496Z,46.93
2022-10-07T04:00:04.948Z,46.87
2022-10-07T04:05:07.503Z,47.15
2022-10-07T04:10:11.436Z,47.03
2022-10-07T04:15:14.261Z,47.04
2022-10-07T04:20:17.827Z,47.05
2022-10-07T04:25:35.570Z,47.08
2022-10-07T04:30:43.989Z,47.60
2022-10-07T04:35:46.380Z,47.75
2022-10-07T04:40:53.427Z,47.99
2022-10-07T04:46:07.974Z,47.98
2022-10-07T04:51:11.004Z,48.44
2022-10-07T04:56:13.375Z,47.91
2022-10-07T05:01:15.663Z,48.14
2022-10-07T05:06:18.933Z,48.22
2022-10-07T05:11:21.347Z,47.94
2022-10-07T05:16:23.729Z,48.32
2022-10-07T05:21:26.006Z,48.33
2022-10-07T05:26:28.395Z,48.19
2022-10-07T05:31:30.823Z,48.33
2022-10-07T05:36:33.059Z,47.94
2022-10-07T05:41:44.999Z,47.88
2022-10-07T05:46:48.029Z,47.88
2022-10-07T05:51:51.882Z,47.77
2022-10-07T05:56:54.383Z,47.64
2022-10-07T06:02:00.743Z,47.37
2022-10-07T06:07:04.511Z,47.07
2022-10-07T06:12:25.236Z,47.10
2022-10-07T06:17:27.568Z,46.53
2022-10-07T06:22:29.817Z,46.67
2022-10-07T06:27:32.025Z,46.40
2022-10-07T06:32:34.238Z,46.35
2022-10-07T06:37:36.496Z,45.83
2022-10-07T06:42:38.865Z,45.71
2022-10-07T06:47:41.291Z,45.26
2022-10-07T06:52:44.256Z,44.44
2022-10-07T06:57:46.700Z,44.16
2022-10-07T07:02:49.113Z,43.94
2022-10-07T07:07:51.466Z,44.17
2022-10-07T07:12:54.650Z,43.99
2022-10-07T07:17:56.947Z,44.06
2022-10-07T07:22:59.316Z,44.05
2022-10-07T07:28:02.438Z,44.05
2022-10-07T07:33:05.744Z,43.59
2022-10-07T07:38:09.109Z,43.47
2022-10-07T07:43:11.354Z,43.28
2022-10-07T07:48:13.998Z,42.58
2022-10-07T07:53:16.326Z,42.55
2022-10-07T07:58:19.156Z,42.41
2022-10-07T08:03:21.549Z,41.91
2022-10-07T08:08:23.956Z,41.69
2022-10-07T08:13:26.280Z,41.48
2022-10-07T08:18:28.567Z,41.13
2022-10-07T08:23:31.323Z,41.15
2022-10-07T08:28:35.528Z,40.83
2022-10-07T08:33:43.336Z,40.84
2022-10-07T08:38:50.035Z,40.80
2022-10-07T08:43:52.819Z,40.87
2022-10-07T08:49:05.123Z,40.85
2022-10-07T08:54:13.055Z,40.55
2022-10-07T08:59:27.761Z,40.34
2022-10-07T09:04:44.867Z,39.68
2022-10-07T09:09:54.330Z,39.32
2022-10-07T09:14:59.657Z,38.89
2022-10-07T09:20:19.989Z,38.84
2022-10-07T09:25:27.554Z,38.16
2022-10-07T09:30:29.958Z,38.03
2022-10-07T09:35:32.299Z,37.79
2022-10-07T09:40:59.078Z,37.82
2022-10-07T09:46:02.190Z,37.39
2022-10-07T09:51:27.362Z,37.02
2022-10-07T09:56:42.042Z,36.87
2022-10-07T10:01:56.119Z,36.35
2022-10-07T10:07:06.651Z,35.83
2022-10-07T10:12:15.401Z,34.71
2022-10-07T10:17:28.791Z,34.37
2022-10-07T10:22:31.246Z,34.20
2022-10-07T10:28:00.141Z,33.67
2022-10-07T10:33:15.212Z,33.62
2022-10-07T10:38:26.007Z,33.53
2022-10-07T10:43:35.630Z,32.93
2022-10-07T10:48:44.775Z,32.46
2022-10-07T10:54:15.085Z,32.18
2022-10-07T10:59:41.409Z,31.18
2022-10-07T11:04:50.538Z,31.32
2022-10-07T11:10:02.030Z,31.48
2022-10-07T11:15:21.949Z,31.39
2022-10-07T11:20:41.107Z,31.22
2022-10-07T11:26:03.362Z,31.22
2022-10-07T11:31:24.118Z,31.36
2022-10-07T11:36:44.335Z,30.12
2022-10-07T11:41:58.607Z,29.68
2022-10-07T11:47:04.594Z,29.43
2022-10-07T11:52:11.455Z,29.57
2022-10-07T11:57:24.595Z,29.20
2022-10-07T12:02:29.932Z,28.87
2022-10-07T12:07:41.208Z,28.33
2022-10-07T12:12:45.003Z,28.73
2022-10-07T12:18:11.002Z,28.53
2022-10-07T12:23:28.790Z,28.16
2022-10-07T12:28:40.539Z,28.07
2022-10-07T12:33:45.816Z,27.47
2022-10-07T12:38:57.216Z,27.23
2022-10-07T12:44:11.206Z,27.26
2022-10-07T12:49:21.108Z,26.72
2022-10-07T12:54:44.244Z,26.67
2022-10-07T13:00:14.255Z,24.18
2022-10-07T13:05:53.770Z,23.01
2022-10-07T13:11:07.954Z,23.53
2022-10-07T13:16:38.981Z,22.13
2022-10-07T13:22:05.717Z,21.04
2022-10-07T13:27:10.995Z,20.59
2022-10-07T13:32:22.512Z,20.35
2022-10-07T13:37:34.312Z,20.57
2022-10-07T13:42:36.764Z,20.74
2022-10-07T13:47:40.102Z,20.25
2022-10-07T13:52:47.403Z,19.40
2022-10-07T13:57:49.984Z,19.29
2022-10-07T14:02:52.842Z,19.00
2022-10-07T14:08:16.754Z,19.65
2022-10-07T14:13:19.289Z,20.77
2022-10-07T14:18:21.699Z,21.28
2022-10-07T14:23:31.610Z,21.44
2022-10-07T14:28:36.061Z,21.07
2022-10-07T14:34:02.022Z,21.04
2022-10-07T14:39:24.556Z,21.71
2022-10-07T14:44:27.055Z,21.54
2022-10-07T14:49:30.377Z,21.41
2022-10-07T14:54:34.666Z,21.83
2022-10-07T14:59:37.683Z,21.64
2022-10-07T15:04:40.612Z,21.76
2022-10-07T15:09:44.542Z,22.05
2022-10-07T15:14:46.906Z,21.75
2022-10-07T15:19:51.689Z,22.07
2022-10-07T15:24:54.205Z,22.22
2022-10-07T15:29:56.508Z,22.70
2022-10-07T15:34:59.354Z,23.31
2022-10-07T15:40:01.625Z,23.62
2022-10-07T15:45:04.086Z,24.12
2022-10-07T15:50:07.876Z,24.45
2022-10-07T15:55:10.262Z,25.06
2022-10-07T16:00:13.099Z,25.50
2022-10-07T16:05:15.397Z,26.21
2022-10-07T16:10:17.929Z,26.65
2022-10-07T16:15:20.592Z,27.28
2022-10-07T16:20:22.764Z,27.85
2022-10-07T16:25:25.002Z,28.02
2022-10-07T16:30:42.215Z,28.43
2022-10-07T16:35:44.853Z,28.70
2022-10-07T16:40:54.848Z,29.08
2022-10-07T16:46:02.917Z,29.41
2022-10-07T16:51:08.584Z,29.57
2022-10-07T16:56:11.279Z,29.65
2022-10-07T17:01:16.769Z,30.01
2022-10-07T17:06:21.727Z,30.01
2022-10-07T17:11:31.117Z,30.12
2022-10-07T17:16:38.185Z,30.23
2022-10-07T17:21:42.966Z,30.35
2022-10-07T17:26:46.601Z,30.39
2022-10-07T17:31:51.038Z,30.70
2022-10-07T17:36:54.468Z,30.90
2022-10-07T17:41:57.924Z,30.95
2022-10-07T17:47:04.008Z,31.27
2022-10-07T17:52:06.229Z,31.20
2022-10-07T17:57:08.640Z,31.52
2022-10-07T18:02:11.363Z,31.53
2022-10-07T18:07:13.830Z,31.81
2022-10-07T18:12:34.887Z,32.09
2022-10-07T18:17:37.379Z,32.40
2022-10-07T18:22:39.623Z,32.81
2022-10-07T18:27:41.844Z,32.81
2022-10-07T18:32:44.083Z,32.84
2022-10-07T18:37:46.693Z,33.29
2022-10-07T18:42:49.125Z,33.29
2022-10-07T18:47:51.629Z,33.65
2022-10-07T18:52:54.707Z,33.75
2022-10-07T18:57:57.109Z,34.01
2022-10-07T19:02:59.468Z,34.56
2022-10-07T19:08:01.907Z,34.63
2022-10-07T19:13:22.402Z,34.82
2022-10-07T19:18:25.981Z,35.00
2022-10-07T19:23:29.558Z,35.06
2022-10-07T19:28:32.282Z,35.49
2022-10-07T19:33:35.013Z,35.49
2022-10-07T19:38:45.126Z,35.69
2022-10-07T19:43:48.758Z,35.70
2022-10-07T19:48:51.544Z,35.61
2022-10-07T19:53:55.191Z,36.04
2022-10-07T19:58:59.656Z,36.12
2022-10-07T20:04:04.829Z,36.35
2022-10-07T20:09:09.422Z,36.47
2022-10-07T20:14:11.934Z,36.53
2022-10-07T20:19:18.966Z,36.74
2022-10-07T20:24:21.494Z,36.88
2022-10-07T20:29:25.510Z,37.01
2022-10-07T20:34:28.231Z,37.34
2022-10-07T20:39:49.820Z,37.43
2022-10-07T20:44:53.651Z,38.01
2022-10-07T20:49:58.200Z,38.15
2022-10-07T20:55:00.653Z,38.25
2022-10-07T21:00:03.110Z,37.95
2022-10-07T21:05:06.994Z,37.68
2022-10-07T21:10:09.260Z,37.38
2022-10-07T21:15:11.870Z,37.41
2022-10-07T21:20:14.280Z,37.66
2022-10-07T21:25:16.688Z,37.74
2022-10-07T21:30:19.243Z,37.74
2022-10-07T21:35:21.434Z,37.80
2022-10-07T21:40:23.923Z,37.59
2022-10-07T21:45:26.091Z,37.87
2022-10-07T21:50:28.326Z,38.03
2022-10-07T21:55:30.843Z,37.94
2022-10-07T22:00:36.556Z,38.33
2022-10-07T22:05:40.302Z,38.35
2022-10-07T22:10:42.732Z,38.89
2022-10-07T22:15:45.646Z,38.54
2022-10-07T22:20:47.935Z,39.10
2022-10-07T22:25:51.812Z,39.17
2022-10-07T22:30:54.062Z,39.14
2022-10-07T22:35:56.324Z,39.40
2022-10-07T22:41:06.699Z,39.83
2022-10-07T22:46:11.140Z,39.59
2022-10-07T22:51:15.387Z,39.73
2022-10-07T22:56:18.997Z,39.43
2022-10-07T23:01:22.440Z,39.62
2022-10-07T23:06:25.123Z,40.16
2022-10-07T23:11:28.748Z,40.04
2022-10-07T23:16:34.431Z,40.33
2022-10-07T23:21:37.588Z,39.78
2022-10-07T23:26:40.075Z,40.13
2022-10-07T23:31:42.509Z,40.11
2022-10-07T23:36:45.021Z,39.89
2022-10-07T23:41:47.427Z,40.33
2022-10-07T23:46:51.013Z,40.58
2022-10-07T23:51:53.756Z,40.49
2022-10-07T23:56:56.110Z,40.51
